Wetterdaten: aktuell Freitag, 24.09.2021 23:40
Datum Zeit Temperatur Bodentemp. Luftfeuchte Luftdruck Niederschlag Windgeschw. Windrichtung Windrichtung Sonnenschein Nieder.dauer Evapotrans. Solarstrahl. Taupunkt Windchill Windböen
24.09.2021 23:40 15,9 °C 15,0 °C 96 % 1009,9 hPa 0,0 l/m² 9,0 km/h (2 Bft) S-SW 202 ° 0 min 3 min 0 mm 0 W/m² 15,3 °C 15,9 °C 14,4 km/h (3 Bft)
24.09.2021 22:40 16,4 °C 15,6 °C 90 % 1010,0 hPa 0,0 l/m² 10,8 km/h (2 Bft) NW 315 ° 0 min 0 min 0 mm 0 W/m² 14,8 °C 16,4 °C 16,1 km/h (3 Bft)
24.09.2021 21:40 16,7 °C 15,6 °C 91 % 1009,8 hPa 0,0 l/m² 7,2 km/h (2 Bft) W 270 ° 0 min 5 min 0 mm 0 W/m² 15,2 °C 16,7 °C 10,8 km/h (2 Bft)
24.09.2021 20:40 16,4 °C 15,6 °C 94 % 1009,7 hPa 0,0 l/m² 3,6 km/h (1 Bft) SW 225 ° 0 min 0 min 0 mm 0 W/m² 15,4 °C 16,4 °C 9,0 km/h (2 Bft)
24.09.2021 19:40 16,6 °C 15,6 °C 92 % 1009,5 hPa 0,0 l/m² 3,6 km/h (1 Bft) S-SO 157 ° 1 min 0 min 0 mm 0 W/m² 15,3 °C 16,6 °C 9,0 km/h (2 Bft)
24.09.2021 18:40 16,7 °C 16,1 °C 91 % 1009,5 hPa 0,0 l/m² 5,4 km/h (1 Bft) W-NW 292 ° 0 min 0 min 0 mm 19 W/m² 15,2 °C 16,7 °C 7,2 km/h (2 Bft)
24.09.2021 17:40 16,7 °C 16,1 °C 92 % 1009,7 hPa 0,0 l/m² 3,6 km/h (1 Bft) W-NW 292 ° 4 min 1 min 0 mm 40 W/m² 15,4 °C 16,7 °C 9,0 km/h (2 Bft)
24.09.2021 16:40 16,4 °C 16,1 °C 95 % 1009,7 hPa 0,0 l/m² 7,2 km/h (2 Bft) SW 225 ° 0 min 0 min 0 mm 60 W/m² 15,6 °C 16,4 °C 14,4 km/h (3 Bft)
24.09.2021 15:40 15,8 °C 15,6 °C 99 % 1010,2 hPa 0,0 l/m² 3,6 km/h (1 Bft) SW 225 ° 0 min 0 min 0 mm 65 W/m² 15,6 °C 15,8 °C 10,8 km/h (2 Bft)
24.09.2021 14:40 15,6 °C 15,0 °C 100 % 1010,3 hPa 0,0 l/m² 9,0 km/h (2 Bft) SW 225 ° 0 min 0 min 0 mm 84 W/m² 15,6 °C 15,6 °C 17,9 km/h (3 Bft)
24.09.2021 13:40 15,1 °C 15,0 °C 100 % 1010,6 hPa 0,0 l/m² 5,4 km/h (1 Bft) S-SW 202 ° 0 min 26 min 0 mm 114 W/m² 15,1 °C 15,1 °C 10,8 km/h (2 Bft)
24.09.2021 12:40 14,6 °C 14,4 °C 100 % 1010,8 hPa 0,4 l/m² 10,8 km/h (2 Bft) S-SW 202 ° 0 min 59 min 0 mm 105 W/m² 14,6 °C 14,6 °C 14,4 km/h (3 Bft)
24.09.2021 11:40 14,1 °C 13,3 °C 98 % 1011,1 hPa 0,2 l/m² 7,2 km/h (2 Bft) S 180 ° 0 min 23 min 0 mm 53 W/m² 13,8 °C 14,1 °C 12,6 km/h (3 Bft)
24.09.2021 10:40 13,7 °C 13,3 °C 95 % 1010,9 hPa 0,0 l/m² 9,0 km/h (2 Bft) SW 225 ° 0 min 0 min 0 mm 54 W/m² 12,9 °C 13,7 °C 12,6 km/h (3 Bft)
24.09.2021 09:40 12,6 °C 12,8 °C 92 % 1011,0 hPa 0,0 l/m² 10,8 km/h (2 Bft) S-SW 202 ° 4 min 0 min 0 mm 214 W/m² 11,3 °C 12,6 °C 16,1 km/h (3 Bft)
24.09.2021 08:40 11,1 °C 11,7 °C 91 % 1011,0 hPa 0,0 l/m² 1,8 km/h (1 Bft) S-SW 202 ° 0 min 0 min 0 mm 104 W/m² 9,7 °C 11,1 °C 1,8 km/h (1 Bft)
24.09.2021 07:40 10,4 °C 10,0 °C 88 % 1010,9 hPa 0,0 l/m² 1,8 km/h (1 Bft) S-SW 202 ° 0 min 0 min 0 mm 19 W/m² 8,5 °C 10,4 °C 5,4 km/h (1 Bft)
24.09.2021 06:40 11,2 °C 10,6 °C 84 % 1010,8 hPa 0,0 l/m² 1,8 km/h (1 Bft) SW 225 ° 0 min 0 min 0 mm 0 W/m² 8,6 °C 11,2 °C 3,6 km/h (1 Bft)
24.09.2021 05:40 11,6 °C 11,1 °C 84 % 1010,7 hPa 0,0 l/m² 9,0 km/h (2 Bft) NW 315 ° 0 min 0 min 0 mm 0 W/m² 9,0 °C 11,6 °C 16,1 km/h (3 Bft)
24.09.2021 04:40 11,8 °C 11,1 °C 85 % 1010,3 hPa 0,0 l/m² 3,6 km/h (1 Bft) S-SW 202 ° 0 min 0 min 0 mm 0 W/m² 9,4 °C 11,8 °C 9,0 km/h (2 Bft)
24.09.2021 03:40 12,3 °C 11,7 °C 80 % 1010,3 hPa 0,0 l/m² 9,0 km/h (2 Bft) N-NW 337 ° 0 min 0 min 0 mm 0 W/m² 8,9 °C 12,3 °C 12,6 km/h (3 Bft)
24.09.2021 02:40 12,3 °C 11,7 °C 84 % 1010,3 hPa 0,0 l/m² 5,4 km/h (1 Bft) NW 315 ° 0 min 0 min 0 mm 0 W/m² 9,7 °C 12,3 °C 9,0 km/h (2 Bft)
24.09.2021 01:40 12,4 °C 11,7 °C 84 % 1010,1 hPa 0,0 l/m² 9,0 km/h (2 Bft) NW 315 ° 0 min 0 min 0 mm 0 W/m² 9,8 °C 12,4 °C 14,4 km/h (3 Bft)
24.09.2021 00:40 12,4 °C 11,7 °C 80 % 1009,8 hPa 0,0 l/m² 7,2 km/h (2 Bft) W-NW 292 ° 0 min 0 min 0 mm 0 W/m² 9,0 °C 12,4 °C 14,4 km/h (3 Bft)
24.09.2021 00:00 12,4 °C 11,7 °C 80 % 1009,5 hPa 0,0 l/m² 9,0 km/h (2 Bft) W-NW 292 ° 0 min 0 min 0 mm 0 W/m² 9,0 °C 12,4 °C 12,6 km/h (3 Bft)
_ Min-Zeit 07:35 06:54 00:00 19:00 - 06:49 - - - - - - 07:13 07:35 06:46
Minimum _ 10,4 °C 9,4 °C 80 % 1009,2 hPa - 0,0 km/h (0 Bft) - - - - - - 8,5 °C 10,4 °C 1,8 km/h (1 Bft)
_ Max-Zeit 17:45 17:16 12:30 11:15 11:21 21:57 - - 09:30 11:08 10:00 17:15 16:18 17:45 22:08
Maximum _ 16,8 °C 16,7 °C 100 % 1011,2 hPa 0,2 l/m² 16,1 km/h
W-NW (3 Bft)
- - 1 min 1 min 0 mm 260 W/m² 15,8 °C 16,8 °C 46,7 km/h
SW (6 Bft)
Durchschnitt _ 14,1 °C 13,6 °C 91 % 1010,3 hPa #0,6 l/m² 6,6 km/h (2 Bft) SW - #9 min. #1:57 h #0,708 mm 71 W/m² 12,6 °C 14,1 °C 12,1 km/h (2 Bft)